アイウン の空港の天気 - METARとTAF

アイウン/ハッサン空港 ( GMML / EUN ) - 西サハラ アイウン
飛行場実況気象(Metar)
観測時間09/25 01:00 WEST (09/25 00:00 UTC)
風向・風速北東 7m/s
視程10km以上
天気現象
なし
気温23℃
湿度73%
気圧1016hPa
METARGMML 250000Z 05014KT CAVOK 23/18 Q1016 NOSIG
過去の天気等 Google飛行場航空写真 Wunderground天気予報

過去48時間のMETAR

飛行場予報(TAF)
発表時間: 9/25 00:00 WEST (9/24 23:00 UTC)
予報対象時間: 25日1時 WEST ~ 26日7時 WEST
風向・風速北東 9m/s
視程10km以上
なし
25日1時 WEST から 確率 30% で
視程4000m
天気現象もや
全天の4割程度の雲 雲底高度 300m
TAF GMML 242300Z 2500/2606 05017KT CAVOK
PROB30 2500/2506 4000 BR SCT010